sensor_id;sensor_type;location;lat;lon;timestamp;pressure;altitude;pressure_sealevel;temperature;humidity
17060;BME280;8646;49.716;9.266;2023-02-16T00:00:55;101477.72;;;3.13;89.47
17060;BME280;8646;49.716;9.266;2023-02-16T00:03:59;101478.59;;;3.07;89.41
17060;BME280;8646;49.716;9.266;2023-02-16T00:07:02;101468.75;;;3.04;89.85
17060;BME280;8646;49.716;9.266;2023-02-16T00:10:05;101480.38;;;3.05;90.01
17060;BME280;8646;49.716;9.266;2023-02-16T00:13:19;101482.03;;;2.88;89.63
17060;BME280;8646;49.716;9.266;2023-02-16T00:16:41;101475.84;;;2.92;90.12
17060;BME280;8646;49.716;9.266;2023-02-16T00:19:45;101466.94;;;2.97;89.64
17060;BME280;8646;49.716;9.266;2023-02-16T00:22:48;101467.84;;;3.02;89.49
17060;BME280;8646;49.716;9.266;2023-02-16T00:25:50;101459.84;;;3.04;89.66
17060;BME280;8646;49.716;9.266;2023-02-16T00:28:55;101466.06;;;3.03;89.23
17060;BME280;8646;49.716;9.266;2023-02-16T00:32:01;101464.28;;;3.02;89.60
17060;BME280;8646;49.716;9.266;2023-02-16T00:35:13;101452.69;;;2.97;89.34
17060;BME280;8646;49.716;9.266;2023-02-16T00:38:16;101453.59;;;3.02;89.09
17060;BME280;8646;49.716;9.266;2023-02-16T00:41:27;101454.44;;;2.92;89.31
17060;BME280;8646;49.716;9.266;2023-02-16T00:44:48;101449.97;;;2.91;89.32
17060;BME280;8646;49.716;9.266;2023-02-16T00:47:54;101448.19;;;2.90;89.04
17060;BME280;8646;49.716;9.266;2023-02-16T00:51:01;101456.16;;;2.84;89.24
17060;BME280;8646;49.716;9.266;2023-02-16T00:54:20;101444.53;;;2.76;89.24
17060;BME280;8646;49.716;9.266;2023-02-16T00:57:24;101450.75;;;2.73;89.37
17060;BME280;8646;49.716;9.266;2023-02-16T01:00:38;101426.53;;;2.50;88.99
17060;BME280;8646;49.716;9.266;2023-02-16T01:03:42;101446.16;;;2.55;89.64
17060;BME280;8646;49.716;9.266;2023-02-16T01:06:47;101441.72;;;2.60;89.57
17060;BME280;8646;49.716;9.266;2023-02-16T01:10:09;101455.03;;;2.50;89.90
17060;BME280;8646;49.716;9.266;2023-02-16T01:13:41;101446.13;;;2.54;89.19
17060;BME280;8646;49.716;9.266;2023-02-16T01:16:45;101454.97;;;2.45;89.28
17060;BME280;8646;49.716;9.266;2023-02-16T01:19:48;101441.59;;;2.41;89.48
17060;BME280;8646;49.716;9.266;2023-02-16T01:22:54;101442.53;;;2.47;89.24
17060;BME280;8646;49.716;9.266;2023-02-16T01:26:01;101448.78;;;2.52;89.54
17060;BME280;8646;49.716;9.266;2023-02-16T01:29:04;101439.03;;;2.57;88.98
17060;BME280;8646;49.716;9.266;2023-02-16T01:32:09;101440.84;;;2.58;89.19
17060;BME280;8646;49.716;9.266;2023-02-16T01:35:15;101454.19;;;2.57;89.02
17060;BME280;8646;49.716;9.266;2023-02-16T01:38:21;101437.22;;;2.53;89.04
17060;BME280;8646;49.716;9.266;2023-02-16T01:41:44;101442.56;;;2.53;88.98
17060;BME280;8646;49.716;9.266;2023-02-16T01:44:55;101434.53;;;2.53;88.99
17060;BME280;8646;49.716;9.266;2023-02-16T01:48:03;101444.31;;;2.48;88.95
17060;BME280;8646;49.716;9.266;2023-02-16T01:51:12;101425.56;;;2.42;89.27
17060;BME280;8646;49.716;9.266;2023-02-16T01:54:34;101432.72;;;2.46;88.83
17060;BME280;8646;49.716;9.266;2023-02-16T01:57:42;101423.84;;;2.50;89.04
17060;BME280;8646;49.716;9.266;2023-02-16T02:01:28;101430.94;;;2.47;88.64
17060;BME280;8646;49.716;9.266;2023-02-16T02:04:45;101417.56;;;2.45;88.68
17060;BME280;8646;49.716;9.266;2023-02-16T02:08:11;101430.88;;;2.38;88.46
17060;BME280;8646;49.716;9.266;2023-02-16T02:11:31;101426.34;;;2.26;88.92
17060;BME280;8646;49.716;9.266;2023-02-16T02:14:38;101413.84;;;2.23;88.74
17060;BME280;8646;49.716;9.266;2023-02-16T02:17:40;101419.94;;;2.07;89.13
17060;BME280;8646;49.716;9.266;2023-02-16T02:20:55;101416.41;;;2.13;88.81
17060;BME280;8646;49.716;9.266;2023-02-16T02:24:55;101413.66;;;2.04;89.18
17060;BME280;8646;49.716;9.266;2023-02-16T02:28:08;101413.69;;;2.07;88.82
17060;BME280;8646;49.716;9.266;2023-02-16T02:31:29;101401.16;;;2.00;88.98
17060;BME280;8646;49.716;9.266;2023-02-16T02:34:53;101397.63;;;2.04;89.26
17060;BME280;8646;49.716;9.266;2023-02-16T02:38:05;101399.44;;;2.06;89.03
17060;BME280;8646;49.716;9.266;2023-02-16T02:41:29;101408.41;;;2.14;89.00
17060;BME280;8646;49.716;9.266;2023-02-16T02:44:56;101398.63;;;2.15;88.98
17060;BME280;8646;49.716;9.266;2023-02-16T02:47:59;101398.50;;;2.00;89.35
17060;BME280;8646;49.716;9.266;2023-02-16T02:51:11;101369.00;;;1.87;89.07
17060;BME280;8646;49.716;9.266;2023-02-16T02:54:36;101408.34;;;2.07;89.28
17060;BME280;8646;49.716;9.266;2023-02-16T02:58:01;101404.75;;;2.05;88.88
17060;BME280;8646;49.716;9.266;2023-02-16T03:01:30;101402.00;;;1.92;88.76
17060;BME280;8646;49.716;9.266;2023-02-16T03:04:34;101403.69;;;1.87;88.88
17060;BME280;8646;49.716;9.266;2023-02-16T03:07:37;101409.84;;;1.76;89.63
17060;BME280;8646;49.716;9.266;2023-02-16T03:10:52;101403.56;;;1.74;89.39
17060;BME280;8646;49.716;9.266;2023-02-16T03:14:16;101408.06;;;1.79;89.56
17060;BME280;8646;49.716;9.266;2023-02-16T03:17:32;101398.38;;;1.89;89.06
17060;BME280;8646;49.716;9.266;2023-02-16T03:20:53;101400.28;;;2.01;88.82
17060;BME280;8646;49.716;9.266;2023-02-16T03:24:20;101402.03;;;1.99;88.50
17060;BME280;8646;49.716;9.266;2023-02-16T03:27:42;101402.03;;;1.99;88.81
17060;BME280;8646;49.716;9.266;2023-02-16T03:31:04;101398.53;;;2.06;88.36
17060;BME280;8646;49.716;9.266;2023-02-16T03:34:10;101391.31;;;1.92;88.63
17060;BME280;8646;49.716;9.266;2023-02-16T03:37:19;101395.69;;;1.84;88.83
17060;BME280;8646;49.716;9.266;2023-02-16T03:40:24;101390.31;;;1.83;89.00
17060;BME280;8646;49.716;9.266;2023-02-16T03:43:33;101384.06;;;1.78;89.07
17060;BME280;8646;49.716;9.266;2023-02-16T03:46:38;101382.34;;;1.84;89.09
17060;BME280;8646;49.716;9.266;2023-02-16T03:49:42;101391.19;;;1.80;89.01
17060;BME280;8646;49.716;9.266;2023-02-16T03:52:45;101395.63;;;1.78;88.94
17060;BME280;8646;49.716;9.266;2023-02-16T03:56:06;101398.28;;;1.77;89.39
17060;BME280;8646;49.716;9.266;2023-02-16T03:59:12;101388.41;;;1.71;89.47
17060;BME280;8646;49.716;9.266;2023-02-16T04:02:15;101401.75;;;1.68;89.43
17060;BME280;8646;49.716;9.266;2023-02-16T04:05:19;101408.84;;;1.68;89.72
17060;BME280;8646;49.716;9.266;2023-02-16T04:08:22;101411.47;;;1.62;89.83
17060;BME280;8646;49.716;9.266;2023-02-16T04:11:25;101414.16;;;1.65;89.72
17060;BME280;8646;49.716;9.266;2023-02-16T04:14:45;101410.66;;;1.69;89.71
17060;BME280;8646;49.716;9.266;2023-02-16T04:17:47;101408.09;;;1.78;89.19
17060;BME280;8646;49.716;9.266;2023-02-16T04:20:54;101407.19;;;1.77;88.91
17060;BME280;8646;49.716;9.266;2023-02-16T04:23:57;101417.00;;;1.81;88.76
17060;BME280;8646;49.716;9.266;2023-02-16T04:27:01;101412.56;;;1.83;88.64
17060;BME280;8646;49.716;9.266;2023-02-16T04:30:05;101409.88;;;1.80;88.52
17060;BME280;8646;49.716;9.266;2023-02-16T04:33:14;101417.88;;;1.77;88.65
17060;BME280;8646;49.716;9.266;2023-02-16T04:36:18;101424.91;;;1.72;88.81
17060;BME280;8646;49.716;9.266;2023-02-16T04:39:21;101420.50;;;1.74;89.09
17060;BME280;8646;49.716;9.266;2023-02-16T04:42:24;101422.28;;;1.75;89.00
17060;BME280;8646;49.716;9.266;2023-02-16T04:45:28;101417.00;;;1.78;88.87
17060;BME280;8646;49.716;9.266;2023-02-16T04:48:30;101420.53;;;1.80;89.16
17060;BME280;8646;49.716;9.266;2023-02-16T04:51:35;101416.94;;;1.75;88.84
17060;BME280;8646;49.716;9.266;2023-02-16T04:54:40;101420.56;;;1.82;88.88
17060;BME280;8646;49.716;9.266;2023-02-16T04:57:50;101423.22;;;1.82;89.05
17060;BME280;8646;49.716;9.266;2023-02-16T05:00:52;101411.69;;;1.84;88.89
17060;BME280;8646;49.716;9.266;2023-02-16T05:03:55;101415.34;;;1.92;88.78
17060;BME280;8646;49.716;9.266;2023-02-16T05:07:09;101401.97;;;1.91;88.70
17060;BME280;8646;49.716;9.266;2023-02-16T05:10:13;101405.59;;;1.98;88.46
17060;BME280;8646;49.716;9.266;2023-02-16T05:13:17;101403.78;;;1.92;88.85
17060;BME280;8646;49.716;9.266;2023-02-16T05:16:45;101411.72;;;1.87;88.61
17060;BME280;8646;49.716;9.266;2023-02-16T05:19:49;101407.22;;;1.82;88.53
17060;BME280;8646;49.716;9.266;2023-02-16T05:22:53;101407.13;;;1.73;88.63
17060;BME280;8646;49.716;9.266;2023-02-16T05:25:56;101402.69;;;1.73;88.38
17060;BME280;8646;49.716;9.266;2023-02-16T05:28:59;101417.75;;;1.67;88.71
17060;BME280;8646;49.716;9.266;2023-02-16T05:32:02;101408.81;;;1.65;88.84
17060;BME280;8646;49.716;9.266;2023-02-16T05:35:05;101418.59;;;1.64;89.00
17060;BME280;8646;49.716;9.266;2023-02-16T05:38:09;101419.47;;;1.62;89.07
17060;BME280;8646;49.716;9.266;2023-02-16T05:41:15;101424.88;;;1.68;89.01
17060;BME280;8646;49.716;9.266;2023-02-16T05:44:27;101431.16;;;1.74;88.80
17060;BME280;8646;49.716;9.266;2023-02-16T05:47:30;101431.16;;;1.74;88.32
17060;BME280;8646;49.716;9.266;2023-02-16T05:50:32;101432.84;;;1.65;88.44
17060;BME280;8646;49.716;9.266;2023-02-16T05:53:36;101429.16;;;1.55;88.89
17060;BME280;8646;49.716;9.266;2023-02-16T05:56:44;101408.66;;;1.49;88.66
17060;BME280;8646;49.716;9.266;2023-02-16T05:59:47;101413.19;;;1.58;88.59
17060;BME280;8646;49.716;9.266;2023-02-16T06:02:50;101423.81;;;1.55;88.56
17060;BME280;8646;49.716;9.266;2023-02-16T06:05:54;101426.50;;;1.57;88.44
17060;BME280;8646;49.716;9.266;2023-02-16T06:08:58;101421.19;;;1.57;88.71
17060;BME280;8646;49.716;9.266;2023-02-16T06:12:07;101423.91;;;1.60;88.33
17060;BME280;8646;49.716;9.266;2023-02-16T06:15:09;101425.69;;;1.64;88.61
17060;BME280;8646;49.716;9.266;2023-02-16T06:18:26;101435.50;;;1.62;88.91
17060;BME280;8646;49.716;9.266;2023-02-16T06:21:36;101426.47;;;1.52;89.22
17060;BME280;8646;49.716;9.266;2023-02-16T06:24:42;101429.25;;;1.61;89.26
17060;BME280;8646;49.716;9.266;2023-02-16T06:27:45;101427.41;;;1.57;89.61
17060;BME280;8646;49.716;9.266;2023-02-16T06:30:48;101438.16;;;1.63;89.51
17060;BME280;8646;49.716;9.266;2023-02-16T06:33:52;101432.75;;;1.57;89.82
17060;BME280;8646;49.716;9.266;2023-02-16T06:36:57;101427.41;;;1.57;89.72
17060;BME280;8646;49.716;9.266;2023-02-16T06:40:01;101438.25;;;1.69;89.15
17060;BME280;8646;49.716;9.266;2023-02-16T06:43:04;101432.84;;;1.66;88.90
17060;BME280;8646;49.716;9.266;2023-02-16T06:46:07;101409.59;;;1.54;88.88
17060;BME280;8646;49.716;9.266;2023-02-16T06:49:13;101435.53;;;1.68;89.04
17060;BME280;8646;49.716;9.266;2023-02-16T06:52:17;101438.22;;;1.71;89.00
17060;BME280;8646;49.716;9.266;2023-02-16T06:55:21;101447.06;;;1.65;88.81
17060;BME280;8646;49.716;9.266;2023-02-16T06:58:24;101443.53;;;1.66;89.14
17060;BME280;8646;49.716;9.266;2023-02-16T07:01:27;101446.19;;;1.66;88.78
17060;BME280;8646;49.716;9.266;2023-02-16T07:04:36;101447.94;;;1.64;88.65
17060;BME280;8646;49.716;9.266;2023-02-16T07:07:39;101447.03;;;1.61;88.73
17060;BME280;8646;49.716;9.266;2023-02-16T07:10:46;101440.72;;;1.52;88.52
17060;BME280;8646;49.716;9.266;2023-02-16T07:13:51;101454.94;;;1.53;88.89
17060;BME280;8646;49.716;9.266;2023-02-16T07:16:59;101448.69;;;1.51;88.91
17060;BME280;8646;49.716;9.266;2023-02-16T07:20:09;101455.94;;;1.64;89.09
17060;BME280;8646;49.716;9.266;2023-02-16T07:23:16;101457.72;;;1.64;89.82
17060;BME280;8646;49.716;9.266;2023-02-16T07:26:20;101475.59;;;1.69;90.02
17060;BME280;8646;49.716;9.266;2023-02-16T07:29:30;101473.81;;;1.71;90.36
17060;BME280;8646;49.716;9.266;2023-02-16T07:32:33;101484.69;;;1.86;90.01
17060;BME280;8646;49.716;9.266;2023-02-16T07:35:41;101473.88;;;1.74;89.72
17060;BME280;8646;49.716;9.266;2023-02-16T07:38:45;101482.78;;;1.76;90.03
17060;BME280;8646;49.716;9.266;2023-02-16T07:41:52;101488.09;;;1.73;88.94
17060;BME280;8646;49.716;9.266;2023-02-16T07:44:56;101484.66;;;1.83;89.01
17060;BME280;8646;49.716;9.266;2023-02-16T07:48:04;101485.56;;;1.85;89.11
17060;BME280;8646;49.716;9.266;2023-02-16T07:51:07;101486.56;;;1.94;89.43
17060;BME280;8646;49.716;9.266;2023-02-16T07:54:12;101491.84;;;1.90;89.84
17060;BME280;8646;49.716;9.266;2023-02-16T07:57:16;101488.41;;;2.04;89.70
17060;BME280;8646;49.716;9.266;2023-02-16T08:00:25;101485.75;;;2.04;89.51
17060;BME280;8646;49.716;9.266;2023-02-16T08:03:30;101486.59;;;1.98;90.04
17060;BME280;8646;49.716;9.266;2023-02-16T08:06:39;101486.06;;;2.37;88.23
17060;BME280;8646;49.716;9.266;2023-02-16T08:09:42;101485.16;;;2.32;88.99
17060;BME280;8646;49.716;9.266;2023-02-16T08:12:52;101478.00;;;2.31;88.35
17060;BME280;8646;49.716;9.266;2023-02-16T08:15:55;101483.22;;;2.17;89.28
17060;BME280;8646;49.716;9.266;2023-02-16T08:18:59;101459.22;;;2.22;88.93
17060;BME280;8646;49.716;9.266;2023-02-16T08:22:04;101473.59;;;2.33;89.19
17060;BME280;8646;49.716;9.266;2023-02-16T08:25:07;101470.09;;;2.42;89.02
17060;BME280;8646;49.716;9.266;2023-02-16T08:28:12;101463.91;;;2.49;88.74
17060;BME280;8646;49.716;9.266;2023-02-16T08:31:23;101461.13;;;2.37;89.37
17060;BME280;8646;49.716;9.266;2023-02-16T08:34:26;101463.84;;;2.41;89.32
17060;BME280;8646;49.716;9.266;2023-02-16T08:37:29;101463.94;;;2.50;89.06
17060;BME280;8646;49.716;9.266;2023-02-16T08:40:36;101460.59;;;2.85;87.44
17060;BME280;8646;49.716;9.266;2023-02-16T08:43:49;101460.69;;;2.97;86.18
17060;BME280;8646;49.716;9.266;2023-02-16T08:46:57;101458.03;;;2.97;86.25
17060;BME280;8646;49.716;9.266;2023-02-16T08:50:01;101458.13;;;3.14;85.23
17060;BME280;8646;49.716;9.266;2023-02-16T08:53:03;101452.78;;;3.20;84.64
17060;BME280;8646;49.716;9.266;2023-02-16T08:56:06;101452.72;;;3.00;86.15
17060;BME280;8646;49.716;9.266;2023-02-16T08:59:12;101445.72;;;3.34;84.01
17060;BME280;8646;49.716;9.266;2023-02-16T09:02:15;101439.47;;;3.33;83.87
17060;BME280;8646;49.716;9.266;2023-02-16T09:05:21;101445.78;;;3.40;83.75
17060;BME280;8646;49.716;9.266;2023-02-16T09:08:24;101446.56;;;3.25;84.63
17060;BME280;8646;49.716;9.266;2023-02-16T09:11:59;101443.91;;;3.22;85.00
17060;BME280;8646;49.716;9.266;2023-02-16T09:15:06;101456.31;;;3.10;86.09
17060;BME280;8646;49.716;9.266;2023-02-16T09:18:10;101460.72;;;3.00;87.06
17060;BME280;8646;49.716;9.266;2023-02-16T09:21:16;101454.59;;;3.21;85.94
17060;BME280;8646;49.716;9.266;2023-02-16T09:24:20;101450.22;;;3.41;84.86
17060;BME280;8646;49.716;9.266;2023-02-16T09:27:23;101447.59;;;3.52;85.35
17060;BME280;8646;49.716;9.266;2023-02-16T09:30:27;101452.09;;;3.66;85.08
17060;BME280;8646;49.716;9.266;2023-02-16T09:33:33;101440.59;;;4.02;81.75
17060;BME280;8646;49.716;9.266;2023-02-16T09:36:36;101441.47;;;3.92;82.38
17060;BME280;8646;49.716;9.266;2023-02-16T09:39:56;101453.06;;;3.88;83.19
17060;BME280;8646;49.716;9.266;2023-02-16T09:43:05;101422.75;;;3.97;82.95
17060;BME280;8646;49.716;9.266;2023-02-16T09:46:12;101432.56;;;4.04;83.90
17060;BME280;8646;49.716;9.266;2023-02-16T09:49:22;101419.16;;;4.14;81.62
17060;BME280;8646;49.716;9.266;2023-02-16T09:52:35;101437.91;;;4.08;82.12
17060;BME280;8646;49.716;9.266;2023-02-16T09:55:43;101432.56;;;4.04;81.99
17060;BME280;8646;49.716;9.266;2023-02-16T09:58:52;101445.94;;;3.98;82.71
17060;BME280;8646;49.716;9.266;2023-02-16T10:02:13;101454.81;;;3.72;84.48
17060;BME280;8646;49.716;9.266;2023-02-16T10:05:26;101446.81;;;3.92;83.67
17060;BME280;8646;49.716;9.266;2023-02-16T10:08:34;101429.84;;;3.81;83.67
17060;BME280;8646;49.716;9.266;2023-02-16T10:11:42;101445.91;;;3.86;84.29
17060;BME280;8646;49.716;9.266;2023-02-16T10:14:50;101446.81;;;3.80;84.63
17060;BME280;8646;49.716;9.266;2023-02-16T10:18:02;101445.88;;;3.70;85.89
17060;BME280;8646;49.716;9.266;2023-02-16T10:21:14;101439.59;;;3.65;85.87
17060;BME280;8646;49.716;9.266;2023-02-16T10:24:18;101444.09;;;3.75;85.75
17060;BME280;8646;49.716;9.266;2023-02-16T10:27:21;101441.41;;;3.74;86.26
17060;BME280;8646;49.716;9.266;2023-02-16T10:30:29;101437.88;;;3.81;86.27
17060;BME280;8646;49.716;9.266;2023-02-16T10:33:40;101430.72;;;3.77;86.98
17060;BME280;8646;49.716;9.266;2023-02-16T10:36:57;101424.50;;;3.87;87.09
17060;BME280;8646;49.716;9.266;2023-02-16T10:40:20;101419.16;;;3.99;86.50
17060;BME280;8646;49.716;9.266;2023-02-16T10:43:38;101411.13;;;4.23;85.63
17060;BME280;8646;49.716;9.266;2023-02-16T10:46:46;101414.72;;;4.32;85.11
17060;BME280;8646;49.716;9.266;2023-02-16T10:49:51;101411.13;;;4.34;84.89
17060;BME280;8646;49.716;9.266;2023-02-16T10:52:59;101389.69;;;4.33;84.79
17060;BME280;8646;49.716;9.266;2023-02-16T10:56:25;101402.19;;;4.55;84.60
17060;BME280;8646;49.716;9.266;2023-02-16T10:59:39;101405.75;;;4.63;84.93
17060;BME280;8646;49.716;9.266;2023-02-16T11:02:44;101407.56;;;4.70;84.84
17060;BME280;8646;49.716;9.266;2023-02-16T11:05:50;101393.22;;;4.86;83.45
17060;BME280;8646;49.716;9.266;2023-02-16T11:08:58;101404.81;;;4.79;84.54
17060;BME280;8646;49.716;9.266;2023-02-16T11:12:13;101390.53;;;4.86;84.21
17060;BME280;8646;49.716;9.266;2023-02-16T11:15:41;101379.81;;;4.77;84.19
17060;BME280;8646;49.716;9.266;2023-02-16T11:18:47;101388.75;;;4.72;84.94
17060;BME280;8646;49.716;9.266;2023-02-16T11:22:05;101380.69;;;4.82;84.85
17060;BME280;8646;49.716;9.266;2023-02-16T11:25:24;101363.69;;;4.82;84.81
17060;BME280;8646;49.716;9.266;2023-02-16T11:28:30;101369.88;;;5.05;84.12
17060;BME280;8646;49.716;9.266;2023-02-16T11:31:37;101368.03;;;5.19;83.80
17060;BME280;8646;49.716;9.266;2023-02-16T11:34:43;101355.47;;;5.29;83.79
17060;BME280;8646;49.716;9.266;2023-02-16T11:37:51;101337.47;;;5.46;82.88
17060;BME280;8646;49.716;9.266;2023-02-16T11:40:55;101340.13;;;5.55;82.71
17060;BME280;8646;49.716;9.266;2023-02-16T11:43:59;101337.38;;;5.64;82.28
17060;BME280;8646;49.716;9.266;2023-02-16T11:47:29;101321.13;;;5.83;81.59
17060;BME280;8646;49.716;9.266;2023-02-16T11:50:35;101319.25;;;5.95;81.69
17060;BME280;8646;49.716;9.266;2023-02-16T11:53:42;101306.72;;;5.99;81.71
17060;BME280;8646;49.716;9.266;2023-02-16T11:57:02;101303.00;;;6.12;80.67
17060;BME280;8646;49.716;9.266;2023-02-16T12:00:15;101305.63;;;6.17;81.38
17060;BME280;8646;49.716;9.266;2023-02-16T12:03:29;101298.59;;;6.03;81.15
17060;BME280;8646;49.716;9.266;2023-02-16T12:07:06;101295.84;;;6.11;82.14
17060;BME280;8646;49.716;9.266;2023-02-16T12:10:38;101288.44;;;6.34;81.26
17060;BME280;8646;49.716;9.266;2023-02-16T12:13:53;101281.06;;;6.55;79.75
17060;BME280;8646;49.716;9.266;2023-02-16T12:17:06;101271.09;;;6.63;78.86
17060;BME280;8646;49.716;9.266;2023-02-16T12:20:32;101279.09;;;6.69;79.26
17060;BME280;8646;49.716;9.266;2023-02-16T12:23:40;101271.81;;;6.77;79.28
17060;BME280;8646;49.716;9.266;2023-02-16T12:26:49;101281.66;;;6.79;79.77
17060;BME280;8646;49.716;9.266;2023-02-16T12:29:59;101268.00;;;6.96;79.99
17060;BME280;8646;49.716;9.266;2023-02-16T12:33:21;101270.59;;;7.04;78.32
17060;BME280;8646;49.716;9.266;2023-02-16T12:36:54;101258.06;;;7.01;77.93
17060;BME280;8646;49.716;9.266;2023-02-16T12:40:17;101263.34;;;7.09;78.96
17060;BME280;8646;49.716;9.266;2023-02-16T12:43:34;101261.31;;;7.26;77.86
17060;BME280;8646;49.716;9.266;2023-02-16T12:46:41;101238.91;;;7.22;77.65
17060;BME280;8646;49.716;9.266;2023-02-16T12:49:50;101235.41;;;7.17;77.66
17060;BME280;8646;49.716;9.266;2023-02-16T12:52:56;101241.59;;;7.22;78.48
17060;BME280;8646;49.716;9.266;2023-02-16T12:56:04;101240.53;;;7.34;78.42
17060;BME280;8646;49.716;9.266;2023-02-16T12:59:17;101231.44;;;7.43;77.54
17060;BME280;8646;49.716;9.266;2023-02-16T13:02:26;101230.41;;;7.51;77.75
17060;BME280;8646;49.716;9.266;2023-02-16T13:05:39;101220.22;;;7.70;77.80
17060;BME280;8646;49.716;9.266;2023-02-16T13:08:49;101218.06;;;7.90;76.83
17060;BME280;8646;49.716;9.266;2023-02-16T13:11:57;101211.75;;;7.93;77.13
17060;BME280;8646;49.716;9.266;2023-02-16T13:15:13;101216.28;;;7.89;77.18
17060;BME280;8646;49.716;9.266;2023-02-16T13:18:20;101221.75;;;7.86;76.90
17060;BME280;8646;49.716;9.266;2023-02-16T13:21:41;101220.78;;;7.89;75.82
17060;BME280;8646;49.716;9.266;2023-02-16T13:25:04;101216.50;;;7.77;77.37
17060;BME280;8646;49.716;9.266;2023-02-16T13:28:28;101214.66;;;7.79;76.83
17060;BME280;8646;49.716;9.266;2023-02-16T13:31:52;101221.97;;;7.71;78.50
17060;BME280;8646;49.716;9.266;2023-02-16T13:35:35;101222.91;;;7.70;78.16
17060;BME280;8646;49.716;9.266;2023-02-16T13:39:10;101207.66;;;7.69;77.80
17060;BME280;8646;49.716;9.266;2023-02-16T13:42:32;101214.88;;;7.67;78.21
17060;BME280;8646;49.716;9.266;2023-02-16T13:45:43;101211.53;;;7.53;78.45
17060;BME280;8646;49.716;9.266;2023-02-16T13:48:49;101213.31;;;7.54;78.76
17060;BME280;8646;49.716;9.266;2023-02-16T13:51:54;101218.78;;;7.48;79.66
17060;BME280;8646;49.716;9.266;2023-02-16T13:54:57;101215.13;;;7.52;79.29
17060;BME280;8646;49.716;9.266;2023-02-16T13:58:05;101202.41;;;7.61;79.33
17060;BME280;8646;49.716;9.266;2023-02-16T14:01:40;101206.84;;;7.62;79.25
17060;BME280;8646;49.716;9.266;2023-02-16T14:05:02;101199.50;;;7.72;79.00
17060;BME280;8646;49.716;9.266;2023-02-16T14:08:12;101199.59;;;7.69;78.58
17060;BME280;8646;49.716;9.266;2023-02-16T14:11:17;101203.16;;;7.70;79.19
17060;BME280;8646;49.716;9.266;2023-02-16T14:14:28;101197.72;;;7.71;79.02
17060;BME280;8646;49.716;9.266;2023-02-16T14:17:32;101187.03;;;7.68;79.73
17060;BME280;8646;49.716;9.266;2023-02-16T14:20:39;101180.50;;;7.81;78.99
17060;BME280;8646;49.716;9.266;2023-02-16T14:23:42;101176.78;;;7.88;78.55
17060;BME280;8646;49.716;9.266;2023-02-16T14:26:52;101183.16;;;7.83;78.18
17060;BME280;8646;49.716;9.266;2023-02-16T14:29:58;101180.72;;;7.69;78.49
17060;BME280;8646;49.716;9.266;2023-02-16T14:33:15;101182.75;;;7.55;79.68
17060;BME280;8646;49.716;9.266;2023-02-16T14:36:25;101177.47;;;7.49;80.32
17060;BME280;8646;49.716;9.266;2023-02-16T14:39:28;101185.41;;;7.58;79.84
17060;BME280;8646;49.716;9.266;2023-02-16T14:42:32;101188.31;;;7.46;80.30
17060;BME280;8646;49.716;9.266;2023-02-16T14:46:10;101184.66;;;7.47;80.10
17060;BME280;8646;49.716;9.266;2023-02-16T14:56:37;101191.16;;;7.35;81.41
17060;BME280;8646;49.716;9.266;2023-02-16T14:59:47;101197.38;;;7.39;81.02
17060;BME280;8646;49.716;9.266;2023-02-16T15:02:55;101183.00;;;7.40;81.17
17060;BME280;8646;49.716;9.266;2023-02-16T15:06:02;101184.78;;;7.41;80.95
17060;BME280;8646;49.716;9.266;2023-02-16T15:09:14;101186.66;;;7.37;81.22
17060;BME280;8646;49.716;9.266;2023-02-16T15:16:16;101180.44;;;7.31;81.37
17060;BME280;8646;49.716;9.266;2023-02-16T15:19:26;101185.06;;;7.22;81.72
17060;BME280;8646;49.716;9.266;2023-02-16T15:22:30;101187.59;;;7.35;81.85
17060;BME280;8646;49.716;9.266;2023-02-16T15:25:36;101181.97;;;7.47;80.97
17060;BME280;8646;49.716;9.266;2023-02-16T15:28:40;101189.28;;;7.39;81.44
17060;BME280;8646;49.716;9.266;2023-02-16T15:31:44;101183.97;;;7.37;81.75
17060;BME280;8646;49.716;9.266;2023-02-16T15:34:48;101174.06;;;7.38;81.30
17060;BME280;8646;49.716;9.266;2023-02-16T15:38:17;101167.81;;;7.36;81.51
17060;BME280;8646;49.716;9.266;2023-02-16T15:41:31;101175.94;;;7.31;82.07
17060;BME280;8646;49.716;9.266;2023-02-16T15:44:35;101162.59;;;7.25;82.37
17060;BME280;8646;49.716;9.266;2023-02-16T15:47:39;101163.44;;;7.28;82.55
17060;BME280;8646;49.716;9.266;2023-02-16T15:50:46;101152.81;;;7.19;82.50
17060;BME280;8646;49.716;9.266;2023-02-16T15:53:51;101146.53;;;7.20;82.49
17060;BME280;8646;49.716;9.266;2023-02-16T15:56:58;101152.94;;;7.13;82.75
17060;BME280;8646;49.716;9.266;2023-02-16T16:00:04;101152.09;;;7.07;83.48
17060;BME280;8646;49.716;9.266;2023-02-16T16:03:08;101156.78;;;6.94;84.73
17060;BME280;8646;49.716;9.266;2023-02-16T16:06:18;101156.84;;;6.89;85.16
17060;BME280;8646;49.716;9.266;2023-02-16T16:09:23;101156.06;;;6.83;85.34
17060;BME280;8646;49.716;9.266;2023-02-16T16:12:28;101168.72;;;6.76;85.92
17060;BME280;8646;49.716;9.266;2023-02-16T16:15:34;101174.09;;;6.75;85.97
17060;BME280;8646;49.716;9.266;2023-02-16T16:18:44;101169.59;;;6.78;85.46
17060;BME280;8646;49.716;9.266;2023-02-16T16:21:49;101166.00;;;6.78;85.43
17060;BME280;8646;49.716;9.266;2023-02-16T16:24:54;101165.22;;;6.68;85.83
17060;BME280;8646;49.716;9.266;2023-02-16T16:28:00;101161.53;;;6.77;86.02
17060;BME280;8646;49.716;9.266;2023-02-16T16:31:06;101142.88;;;6.65;86.03
17060;BME280;8646;49.716;9.266;2023-02-16T16:34:30;101167.00;;;6.69;86.11
17060;BME280;8646;49.716;9.266;2023-02-16T16:37:34;101163.34;;;6.75;85.71
17060;BME280;8646;49.716;9.266;2023-02-16T16:40:38;101166.13;;;6.69;85.86
17060;BME280;8646;49.716;9.266;2023-02-16T16:43:52;101164.34;;;6.66;86.31
17060;BME280;8646;49.716;9.266;2023-02-16T16:46:55;101165.31;;;6.62;86.65
17060;BME280;8646;49.716;9.266;2023-02-16T16:50:00;101162.56;;;6.67;86.44
17060;BME280;8646;49.716;9.266;2023-02-16T16:53:38;101168.72;;;6.75;85.83
17060;BME280;8646;49.716;9.266;2023-02-16T16:56:41;101165.19;;;6.73;86.05
17060;BME280;8646;49.716;9.266;2023-02-16T16:59:45;101169.63;;;6.74;86.00
17060;BME280;8646;49.716;9.266;2023-02-16T17:02:48;101173.31;;;6.65;86.48
17060;BME280;8646;49.716;9.266;2023-02-16T17:05:51;101174.13;;;6.73;86.44
17060;BME280;8646;49.716;9.266;2023-02-16T17:08:54;101176.00;;;6.68;86.69